Time;durP1;ratioP1;P1;durP2;ratioP2;P2;SDS_P1;SDS_P2;PMS_P1;PMS_P2;Temp;Humidity;BMP_temperature;BMP_pressure;BME280_temperature;BME280_humidity;BME280_pressure;Samples;Min_cycle;Max_cycle;Signal;HPM_P1;HPM_P2
2022/08/23 00:01:11;;;;;;;39.42;8.30;;;;;;;19.65;100.00;99131.14;1719621;81;21366;-68
2022/08/23 00:03:39;;;;;;;41.53;7.58;;;;;;;19.61;100.00;99127.46;1723867;80;20908;-70
2022/08/23 00:06:06;;;;;;;28.87;7.78;;;;;;;19.61;100.00;99132.91;1710902;80;21509;-68
2022/08/23 00:08:32;;;;;;;40.67;8.23;;;;;;;19.56;100.00;99127.06;1718428;80;21043;-69
2022/08/23 00:10:59;;;;;;;45.70;9.10;;;;;;;19.56;100.00;99129.79;1715535;80;21247;-69
2022/08/23 00:13:27;;;;;;;33.58;7.33;;;;;;;19.51;100.00;99131.89;1732783;80;21281;-70
2022/08/23 00:15:55;;;;;;;37.35;8.13;;;;;;;19.48;100.00;99129.25;1714704;80;21573;-69
2022/08/23 00:18:23;;;;;;;26.33;6.95;;;;;;;19.42;100.00;99127.24;1692603;82;21687;-69
2022/08/23 00:20:50;;;;;;;38.65;8.10;;;;;;;19.39;100.00;99126.53;1689346;83;21079;-69
2022/08/23 00:23:16;;;;;;;39.25;9.23;;;;;;;19.37;100.00;99131.50;1704711;83;21232;-69
2022/08/23 00:25:43;;;;;;;41.37;7.72;;;;;;;19.37;100.00;99130.70;1708745;82;21371;-69
2022/08/23 00:28:10;;;;;;;26.65;7.42;;;;;;;19.37;100.00;99128.77;1691595;82;21480;-69
2022/08/23 00:30:37;;;;;;;28.73;7.67;;;;;;;19.36;100.00;99129.91;1689884;82;20959;-70
2022/08/23 00:33:04;;;;;;;42.30;8.60;;;;;;;19.35;100.00;99122.05;1697086;82;20953;-69
2022/08/23 00:35:32;;;;;;;40.50;9.08;;;;;;;19.34;100.00;99122.63;1686509;82;21304;-70
2022/08/23 00:37:59;;;;;;;38.15;8.65;;;;;;;19.33;100.00;99124.30;1708948;82;20951;-70
2022/08/23 00:40:26;;;;;;;31.07;7.83;;;;;;;19.30;100.00;99131.75;1693107;82;21012;-70
2022/08/23 00:48:54;;;;;;;42.13;8.65;;;;;;;19.22;100.00;99133.36;1711255;82;21254;-69
2022/08/23 00:51:25;;;;;;;;;;;;;;;19.18;100.00;99134.58;1708029;81;21095;-69
2022/08/23 00:53:56;;;;;;;52.38;12.47;;;;;;;19.17;100.00;99132.16;1707830;82;20079;-70
2022/08/23 00:56:23;;;;;;;48.48;14.38;;;;;;;19.12;100.00;99131.77;1687710;81;21430;-69
2022/08/23 00:58:50;;;;;;;44.93;14.40;;;;;;;19.05;100.00;99136.88;1691703;82;21842;-69
2022/08/23 01:01:17;;;;;;;74.70;14.38;;;;;;;19.01;100.00;99138.09;1670857;83;21362;-70
2022/08/23 01:03:48;;;;;;;42.17;13.65;;;;;;;18.96;100.00;99139.61;1694491;81;20937;-69
2022/08/23 01:06:22;;;;;;;31.93;12.18;;;;;;;18.94;100.00;99135.05;1689952;81;21052;-69
2022/08/23 01:08:54;;;;;;;42.17;13.85;;;;;;;18.88;100.00;99142.31;1694068;81;20994;-68
2022/08/23 01:11:35;;;;;;;37.88;12.68;;;;;;;18.83;100.00;99139.19;1692884;81;20948;-68
2022/08/23 01:14:10;;;;;;;48.42;12.35;;;;;;;18.83;100.00;99135.91;1710640;81;21546;-69
2022/08/23 01:16:51;;;;;;;53.65;13.25;;;;;;;18.82;100.00;99145.20;1685982;82;21084;-70
2022/08/23 01:19:30;;;;;;;49.03;13.32;;;;;;;18.80;100.00;99143.34;1697497;82;20908;-70
2022/08/23 01:22:08;;;;;;;41.05;11.75;;;;;;;18.81;100.00;99137.34;1684259;82;21047;-69
2022/08/23 01:24:36;;;;;;;40.33;12.30;;;;;;;18.78;100.00;99141.50;1643801;84;20972;-70
2022/08/23 01:27:04;;;;;;;39.07;11.80;;;;;;;18.72;100.00;99144.68;1644421;85;21906;-69
2022/08/23 01:29:30;;;;;;;39.27;11.55;;;;;;;18.67;100.00;99146.16;1646552;85;21322;-68
2022/08/23 01:31:58;;;;;;;41.80;11.88;;;;;;;18.62;100.00;99145.78;1656629;85;21121;-70
2022/08/23 01:34:27;;;;;;;36.35;11.73;;;;;;;18.60;100.00;99145.30;1650949;86;21039;-68
2022/08/23 01:36:55;;;;;;;34.53;11.60;;;;;;;18.58;100.00;99144.80;1646379;86;21093;-68
2022/08/23 01:39:22;;;;;;;37.70;11.28;;;;;;;18.56;100.00;99143.75;1654689;86;21246;-69
2022/08/23 01:41:50;;;;;;;39.33;11.53;;;;;;;18.58;100.00;99140.16;1640917;86;21015;-69
2022/08/23 01:44:17;;;;;;;37.00;11.28;;;;;;;18.58;100.00;99152.95;1643999;86;20918;-69
2022/08/23 01:46:45;;;;;;;39.23;10.80;;;;;;;18.53;100.00;99145.75;1641763;85;21481;-69
2022/08/23 01:49:13;;;;;;;40.73;10.88;;;;;;;18.60;100.00;99154.24;1638690;85;22287;-69
2022/08/23 01:51:41;;;;;;;32.17;11.43;;;;;;;18.61;100.00;99152.31;1637533;86;22080;-69
2022/08/23 01:54:08;;;;;;;51.88;10.93;;;;;;;18.59;100.00;99147.22;1639479;86;21538;-69
2022/08/23 01:56:35;;;;;;;35.15;10.65;;;;;;;18.57;100.00;99150.80;1632660;86;21197;-69
2022/08/23 01:59:03;;;;;;;41.10;10.60;;;;;;;18.53;100.00;99152.55;1624328;86;21078;-69
2022/08/23 02:01:31;;;;;;;36.93;8.50;;;;;;;18.47;100.00;99149.75;1648581;81;21077;-69
2022/08/23 02:03:58;;;;;;;36.77;10.08;;;;;;;18.49;100.00;99142.62;1709175;82;22557;-69
2022/08/23 02:06:25;;;;;;;37.48;10.05;;;;;;;18.51;100.00;99158.05;1697090;82;21028;-69
2022/08/23 02:09:01;;;;;;;34.73;10.48;;;;;;;18.49;100.00;99148.84;1704572;81;21060;-69
2022/08/23 02:11:33;;;;;;;26.30;8.13;;;;;;;18.52;100.00;99148.23;1709448;81;23111;-69
2022/08/23 02:14:04;;;;;;;37.73;10.20;;;;;;;18.49;100.00;99142.62;1714984;82;21107;-69
2022/08/23 02:16:37;;;;;;;28.32;9.75;;;;;;;18.46;100.00;99142.70;1726442;82;21891;-70
2022/08/23 02:19:07;;;;;;;21.68;8.73;;;;;;;18.45;100.00;99137.03;1708052;81;20934;-70
2022/08/23 02:21:35;;;;;;;32.35;9.93;;;;;;;18.43;100.00;99139.25;1714978;80;20962;-69
2022/08/23 02:24:06;;;;;;;24.27;9.15;;;;;;;18.38;100.00;99144.84;1725433;80;21560;-69
2022/08/23 02:26:37;;;;;;;36.58;8.80;;;;;;;18.34;100.00;99143.86;1726911;80;20932;-69
2022/08/23 02:29:05;;;;;;;31.00;8.10;;;;;;;18.33;100.00;99138.20;1730532;81;21211;-69
2022/08/23 02:31:32;;;;;;;26.73;9.35;;;;;;;18.28;100.00;99144.57;1705306;81;20893;-69
2022/08/23 02:33:59;;;;;;;35.40;10.35;;;;;;;18.24;100.00;99142.23;1705425;82;21433;-69
2022/08/23 02:36:28;;;;;;;33.88;8.80;;;;;;;18.17;100.00;99145.39;1702320;83;20989;-69
2022/08/23 02:38:55;;;;;;;;;;;;;;;18.12;100.00;99145.53;1706095;82;21613;-69
2022/08/23 02:41:22;;;;;;;32.30;8.10;;;;;;;18.11;100.00;99144.51;1706070;82;21225;-69
2022/08/23 02:43:53;;;;;;;30.08;9.55;;;;;;;18.08;100.00;99140.50;1707302;81;21138;-68
2022/08/23 02:46:21;;;;;;;30.88;9.10;;;;;;;18.07;100.00;99153.03;1706112;81;20901;-69
2022/08/23 02:48:49;;;;;;;35.78;8.20;;;;;;;18.02;100.00;99158.03;1700914;82;21004;-69
2022/08/23 02:51:17;;;;;;;27.22;8.20;;;;;;;17.98;100.00;99159.23;1703383;81;20948;-69
2022/08/23 02:53:45;;;;;;;30.63;8.50;;;;;;;17.93;100.00;99156.66;1691137;82;21363;-68
2022/08/23 02:56:12;;;;;;;36.30;8.08;;;;;;;17.91;100.00;99154.01;1720666;82;20931;-69
2022/08/23 02:58:40;;;;;;;26.50;8.23;;;;;;;17.81;100.00;99155.08;1708830;82;21211;-69
2022/08/23 03:01:21;;;;;;;30.25;9.00;;;;;;;17.78;100.00;99159.72;1703545;82;20949;-69
2022/08/23 03:03:48;;;;;;;25.40;7.42;;;;;;;17.79;100.00;99160.77;1704552;82;20942;-71
2022/08/23 03:06:15;;;;;;;27.00;8.38;;;;;;;17.83;100.00;99161.53;1714634;82;21279;-70
2022/08/23 03:08:43;;;;;;;28.27;8.18;;;;;;;17.91;100.00;99167.02;1696354;81;25415;-71
2022/08/23 03:11:15;;;;;;;20.23;7.22;;;;;;;17.97;100.00;99174.47;1687206;81;21080;-69
2022/08/23 03:13:47;;;;;;;35.28;9.03;;;;;;;18.03;100.00;99168.34;1710296;81;21060;-69
2022/08/23 03:16:14;;;;;;;35.17;8.85;;;;;;;18.12;100.00;99168.62;1703022;81;21006;-70
2022/08/23 03:18:44;;;;;;;29.65;9.50;;;;;;;18.10;100.00;99166.77;1702634;81;21258;-71
2022/08/23 03:21:11;;;;;;;35.43;9.60;;;;;;;18.15;100.00;99163.94;1713890;81;21596;-70
2022/08/23 03:23:38;;;;;;;41.73;9.83;;;;;;;18.18;100.00;99174.17;1710887;81;21072;-71
2022/08/23 03:26:07;;;;;;;32.38;9.85;;;;;;;18.19;100.00;99174.97;1668363;83;21527;-70
2022/08/23 03:28:36;;;;;;;30.50;9.40;;;;;;;18.19;100.00;99174.97;1702749;81;21036;-70
2022/08/23 03:31:03;;;;;;;32.50;8.43;;;;;;;18.19;100.00;99184.47;1698173;83;21148;-69
2022/08/23 03:33:33;;;;;;;23.30;9.13;;;;;;;18.13;100.00;99189.25;1711422;81;21107;-70
2022/08/23 03:36:03;;;;;;;32.00;9.05;;;;;;;18.18;100.00;99194.55;1705194;82;21008;-70
2022/08/23 03:38:30;;;;;;;28.65;9.28;;;;;;;18.18;100.00;99195.11;1715259;82;21419;-71
2022/08/23 03:40:58;;;;;;;39.73;10.90;;;;;;;18.21;100.00;99195.83;1686810;83;20979;-71
2022/08/23 03:43:25;;;;;;;42.05;10.55;;;;;;;18.20;100.00;99192.85;1714572;83;27108;-70
2022/08/23 03:45:53;;;;;;;34.73;9.78;;;;;;;18.24;100.00;99199.84;1715434;82;21282;-70
2022/08/23 03:48:21;;;;;;;28.38;11.35;;;;;;;18.24;100.00;99202.55;1719394;83;20980;-69
2022/08/23 03:50:48;;;;;;;32.30;10.30;;;;;;;18.30;100.00;99206.72;1715283;81;20948;-69
2022/08/23 03:53:15;;;;;;;25.95;9.98;;;;;;;18.37;100.00;99218.77;1676666;83;20982;-70
2022/08/23 03:55:43;;;;;;;31.00;10.43;;;;;;;18.49;100.00;99209.20;1695406;82;21329;-70
2022/08/23 03:58:11;;;;;;;32.80;10.08;;;;;;;18.59;100.00;99223.31;1689691;82;20877;-70
2022/08/23 04:00:38;;;;;;;22.20;8.80;;;;;;;18.68;100.00;99223.33;1704814;83;20984;-71
2022/08/23 04:03:06;;;;;;;36.63;10.70;;;;;;;18.73;100.00;99220.47;1706265;81;21040;-70
2022/08/23 04:05:36;;;;;;;19.37;8.40;;;;;;;18.79;100.00;99223.86;1705567;83;21564;-71
2022/08/23 04:08:08;;;;;;;28.20;10.28;;;;;;;18.90;100.00;99222.45;1693062;82;20984;-70
2022/08/23 04:10:37;;;;;;;28.15;8.78;;;;;;;19.00;100.00;99225.43;1695982;82;20975;-70
2022/08/23 04:13:07;;;;;;;35.50;9.18;;;;;;;19.04;100.00;99220.97;1694376;82;20872;-70
2022/08/23 04:15:35;;;;;;;30.02;10.08;;;;;;;19.12;100.00;99224.25;1710581;82;20943;-70
2022/08/23 04:18:02;;;;;;;23.67;9.58;;;;;;;19.26;100.00;99228.19;1696932;82;21744;-70
2022/08/23 04:20:29;;;;;;;22.58;8.98;;;;;;;19.34;100.00;99227.39;1693268;82;21169;-72
2022/08/23 04:22:58;;;;;;;24.12;8.60;;;;;;;19.46;100.00;99218.59;1712040;83;21071;-70
2022/08/23 04:25:27;;;;;;;29.23;9.20;;;;;;;19.51;100.00;99225.23;1713431;82;20892;-71
2022/08/23 04:27:54;;;;;;;34.15;9.28;;;;;;;19.66;100.00;99222.00;1711881;81;21009;-70
2022/08/23 04:30:22;;;;;;;23.10;7.95;;;;;;;19.82;100.00;99226.44;1704528;82;20957;-70
2022/08/23 04:32:49;;;;;;;25.65;8.23;;;;;;;19.97;100.00;99229.77;1719485;82;21907;-71
2022/08/23 04:35:16;;;;;;;22.22;8.93;;;;;;;20.21;100.00;99233.29;1719307;81;20950;-69
2022/08/23 04:37:43;;;;;;;22.95;7.85;;;;;;;20.21;100.00;99233.29;1713667;81;21078;-70
2022/08/23 04:42:58;;;;;;;30.35;8.33;;;;;;;20.60;100.00;99240.95;1730685;80;21404;-70
2022/08/23 04:45:26;;;;;;;23.63;7.13;;;;;;;20.66;100.00;99239.08;1720439;82;21141;-70
2022/08/23 04:47:53;;;;;;;27.05;8.38;;;;;;;20.62;100.00;99244.16;1678020;83;20984;-70
2022/08/23 04:50:20;;;;;;;14.43;6.80;;;;;;;20.47;100.00;99244.11;1704438;82;21032;-69
2022/08/23 04:53:05;;;;;;;11.43;6.42;;;;;;;20.41;100.00;99235.32;1713547;81;22032;-70
2022/08/23 04:55:34;;;;;;;21.65;6.95;;;;;;;20.34;100.00;99241.27;1706693;82;20975;-71
2022/08/23 04:58:05;;;;;;;23.35;7.10;;;;;;;20.57;100.00;99240.25;1678908;82;21152;-69
2022/08/23 05:00:33;;;;;;;17.80;6.58;;;;;;;20.88;100.00;99243.45;1703294;83;20893;-69
2022/08/23 05:03:01;;;;;;;;;;;;;;;21.05;100.00;99242.55;1704286;81;21536;-69
2022/08/23 05:05:29;;;;;;;20.37;7.13;;;;;;;21.26;100.00;99245.28;1710999;81;20164;-69
2022/08/23 05:07:58;;;;;;;26.27;8.05;;;;;;;21.52;100.00;99247.85;1701371;82;20972;-69
2022/08/23 05:10:25;;;;;;;30.97;7.53;;;;;;;21.81;100.00;99251.63;1700891;81;21275;-69
2022/08/23 05:12:53;;;;;;;22.85;7.83;;;;;;;21.89;100.00;99258.13;1695187;82;21031;-69
2022/08/23 05:15:21;;;;;;;;;;;;;;;21.94;100.00;99255.19;1707229;82;20991;-69
2022/08/23 05:17:50;;;;;;;16.42;5.97;;;;;;;22.22;100.00;99260.86;1710412;82;20610;-71
2022/08/23 05:20:17;;;;;;;28.85;6.83;;;;;;;22.35;100.00;99265.80;1662621;83;21028;-69
2022/08/23 05:22:44;;;;;;;23.40;6.95;;;;;;;22.36;100.00;99272.28;1717268;82;21246;-70
2022/08/23 05:28:19;;;;;;;14.90;6.30;;;;;;;22.67;100.00;99277.80;1700104;82;21036;-69
2022/08/23 05:31:10;;;;;;;16.77;6.90;;;;;;;22.98;99.83;99286.84;1697813;82;21514;-70
2022/08/23 05:33:45;;;;;;;15.68;6.55;;;;;;;22.72;96.82;99283.05;1709696;82;20971;-71
2022/08/23 05:36:14;;;;;;;17.73;6.58;;;;;;;22.68;97.68;99284.86;1711037;82;21283;-70
2022/08/23 05:38:41;;;;;;;20.72;6.62;;;;;;;22.92;97.85;99288.75;1699788;82;21035;-69
2022/08/23 05:41:09;;;;;;;29.02;6.87;;;;;;;23.11;94.51;99284.89;1705133;82;21068;-68
2022/08/23 05:43:36;;;;;;;25.88;7.08;;;;;;;23.17;93.49;99288.97;1686128;82;21068;-69
2022/08/23 05:46:09;;;;;;;24.47;6.03;;;;;;;23.04;92.66;99289.56;1699464;82;21013;-69
2022/08/23 05:48:40;;;;;;;15.35;6.08;;;;;;;22.77;95.38;99288.86;1708106;82;21265;-69
2022/08/23 05:51:16;;;;;;;21.23;6.22;;;;;;;22.51;95.86;99296.80;1698882;83;21003;-70
2022/08/23 05:53:44;;;;;;;19.23;6.37;;;;;;;22.38;98.79;99296.56;1713577;81;20944;-70
2022/08/23 05:56:14;;;;;;;;;;;;;;;22.46;97.99;99291.55;1712485;82;20951;-70
2022/08/23 05:58:41;;;;;;;23.67;6.28;;;;;;;22.63;99.05;99292.72;1690426;83;20429;-70
2022/08/23 06:01:09;;;;;;;20.23;6.70;;;;;;;23.03;93.87;99294.82;1709180;82;21265;-69
2022/08/23 06:03:36;;;;;;;16.90;5.95;;;;;;;23.20;89.50;99297.06;1703477;82;21001;-71
2022/08/23 06:06:06;;;;;;;25.90;6.80;;;;;;;23.35;89.74;99303.77;1695223;82;21057;-69
2022/08/23 06:08:34;;;;;;;16.93;6.42;;;;;;;23.22;88.48;99303.80;1686689;81;21566;-70
2022/08/23 06:11:09;;;;;;;;;;;;;;;23.26;90.28;99301.97;1681225;82;21488;-69
2022/08/23 06:13:43;;;;;;;22.37;7.62;;;;;;;23.24;88.43;99307.56;1703500;82;22629;-70
2022/08/23 06:16:12;;;;;;;51.28;19.23;;;;;;;23.26;90.74;99307.45;1705672;82;21558;-69
2022/08/23 06:18:39;;;;;;;39.50;16.55;;;;;;;23.27;89.58;99313.72;1709202;82;21558;-67
2022/08/23 06:21:10;;;;;;;38.55;16.42;;;;;;;23.07;90.70;99316.81;1698192;82;21016;-70
2022/08/23 06:23:42;;;;;;;28.23;11.08;;;;;;;23.37;93.01;99317.92;1702544;81;20933;-69
2022/08/23 06:26:15;;;;;;;35.33;12.33;;;;;;;24.03;85.86;99318.89;1661418;84;21288;-70
2022/08/23 06:28:50;;;;;;;25.48;7.17;;;;;;;24.10;85.18;99316.34;1673256;83;21557;-70
2022/08/23 06:31:44;;;;;;;18.62;6.45;;;;;;;24.27;82.46;99319.93;1728961;80;21027;-69
2022/08/23 06:33:50;;;;;;;17.85;5.85;;;;;;;24.59;81.34;99322.16;1672519;83;20960;-69
2022/08/23 06:36:25;;;;;;;26.27;6.10;;;;;;;24.96;78.99;99320.52;1683130;83;21019;-70
2022/08/23 06:38:56;;;;;;;15.58;5.92;;;;;;;25.05;77.15;99329.95;1729207;80;21152;-69
2022/08/23 06:41:41;;;;;;;15.60;6.05;;;;;;;24.96;72.13;99335.62;1728177;81;20892;-70
2022/08/23 06:44:15;;;;;;;30.88;6.40;;;;;;;25.07;73.13;99332.56;1717561;81;20947;-70
2022/08/23 06:46:58;;;;;;;20.27;5.60;;;;;;;25.35;71.95;99340.68;1725208;81;21018;-70
2022/08/23 06:49:26;;;;;;;24.18;6.17;;;;;;;25.34;70.33;99337.73;1737294;81;21089;-71
2022/08/23 06:51:56;;;;;;;12.10;4.92;;;;;;;25.15;70.13;99338.44;1719689;80;21107;-69
2022/08/23 06:54:31;;;;;;;25.05;5.97;;;;;;;25.18;71.09;99343.23;1674823;84;21550;-70
2022/08/23 06:57:08;;;;;;;20.32;5.83;;;;;;;25.35;67.85;99348.92;1672976;84;21448;-69
2022/08/23 06:59:42;;;;;;;29.82;6.30;;;;;;;25.47;67.83;99344.48;1718765;80;21066;-70
2022/08/23 07:02:13;;;;;;;23.20;5.47;;;;;;;25.79;66.37;99352.83;1720197;81;21003;-70
2022/08/23 07:04:52;;;;;;;26.20;5.80;;;;;;;26.17;64.04;99348.53;1693364;80;21160;-70
2022/08/23 07:07:16;;;;;;;34.70;6.33;;;;;;;26.09;61.16;99351.72;1721764;80;21437;-69
2022/08/23 07:09:43;;;;;;;19.57;5.67;;;;;;;26.15;61.96;99361.84;1723594;80;20980;-70
2022/08/23 07:12:11;;;;;;;27.77;6.60;;;;;;;26.21;60.78;99359.58;1720050;80;21111;-70
2022/08/23 07:14:41;;;;;;;28.23;6.70;;;;;;;26.59;60.45;99354.63;1747314;81;20974;-69
2022/08/23 07:17:08;;;;;;;30.92;6.78;;;;;;;27.09;58.10;99351.91;1724908;80;21255;-71
2022/08/23 07:19:35;;;;;;;19.98;5.72;;;;;;;27.32;57.03;99361.56;1723447;81;21225;-70
2022/08/23 07:22:04;;;;;;;37.80;8.40;;;;;;;27.27;53.28;99363.25;1698093;81;21046;-69
2022/08/23 07:24:32;;;;;;;34.70;6.50;;;;;;;27.15;54.61;99362.25;1705909;82;20982;-68
2022/08/23 07:27:00;;;;;;;30.43;6.80;;;;;;;27.45;54.12;99363.51;1693736;82;20996;-71
2022/08/23 07:29:28;;;;;;;42.48;8.00;;;;;;;27.35;54.00;99360.81;1701667;81;21643;-70
2022/08/23 07:31:56;;;;;;;34.40;6.78;;;;;;;27.44;52.98;99364.66;1686382;83;20992;-70
2022/08/23 07:34:24;;;;;;;37.78;6.83;;;;;;;27.25;51.35;99372.47;1648853;84;21000;-70
2022/08/23 07:36:51;;;;;;;41.13;6.87;;;;;;;27.09;50.47;99361.55;1625200;85;21114;-68
2022/08/23 07:39:20;;;;;;;46.35;7.12;;;;;;;27.09;50.47;99361.55;1711430;81;21529;-69
2022/08/23 07:41:46;;;;;;;63.68;8.20;;;;;;;27.10;50.95;99368.67;1710112;82;21259;-70
2022/08/23 07:44:14;;;;;;;61.37;9.05;;;;;;;26.99;50.54;99368.48;1706416;81;21068;-69
2022/08/23 07:46:43;;;;;;;54.00;8.40;;;;;;;26.99;51.55;99371.23;1712735;81;20864;-69
2022/08/23 07:49:11;;;;;;;34.80;6.58;;;;;;;27.07;50.71;99377.09;1705355;81;20996;-71
2022/08/23 07:51:41;;;;;;;38.23;7.85;;;;;;;27.32;50.45;99371.20;1710876;81;21205;-70
2022/08/23 07:54:10;;;;;;;43.40;7.45;;;;;;;27.27;49.96;99381.95;1659703;82;22286;-70
2022/08/23 07:56:42;;;;;;;33.90;7.33;;;;;;;27.13;49.59;99371.46;1678631;82;20961;-69
2022/08/23 07:59:11;;;;;;;54.98;8.75;;;;;;;27.19;49.25;99362.91;1675070;82;20942;-70
2022/08/23 08:01:56;;;;;;;62.60;8.68;;;;;;;27.32;50.12;99383.60;1713738;81;20940;-72
2022/08/23 08:04:23;;;;;;;61.90;8.23;;;;;;;27.60;49.37;99389.31;1704503;81;20985;-71
2022/08/23 08:06:51;;;;;;;53.90;8.40;;;;;;;27.63;48.54;99384.42;1698659;82;21279;-74
2022/08/23 08:09:19;;;;;;;39.90;6.87;;;;;;;27.60;48.95;99387.34;1692379;82;21062;-70
2022/08/23 08:11:48;;;;;;;47.88;8.85;;;;;;;27.74;49.36;99379.86;1700649;81;21134;-72
2022/08/23 08:14:16;;;;;;;37.17;8.15;;;;;;;27.85;48.47;99386.33;1695582;81;21212;-70
2022/08/23 08:16:47;;;;;;;54.75;9.15;;;;;;;27.98;47.28;99387.70;1706536;82;21418;-71
2022/08/23 08:19:16;;;;;;;54.40;8.15;;;;;;;28.29;47.25;99387.65;1696393;82;21166;-71
2022/08/23 08:22:02;;;;;;;45.17;8.03;;;;;;;28.55;48.32;99395.06;1689704;82;21166;-74
2022/08/23 08:24:36;;;;;;;42.75;8.28;;;;;;;28.72;45.93;99395.04;1705417;82;20924;-70
2022/08/23 08:27:05;;;;;;;37.73;7.47;;;;;;;28.59;44.67;99391.73;1702421;82;21467;-69
2022/08/23 08:29:33;;;;;;;54.60;8.78;;;;;;;28.16;45.38;99385.14;1695482;82;20999;-70
2022/08/23 08:32:01;;;;;;;57.08;8.63;;;;;;;28.00;46.40;99396.95;1697388;83;21241;-70
2022/08/23 08:34:29;;;;;;;41.42;8.33;;;;;;;28.21;46.56;99403.33;1715173;83;20857;-72
2022/08/23 08:36:57;;;;;;;50.52;8.45;;;;;;;28.31;46.04;99391.62;1712103;81;21157;-74
2022/08/23 08:39:29;;;;;;;50.25;9.33;;;;;;;28.34;45.85;99393.62;1712638;82;21042;-69
2022/08/23 08:42:49;;;;;;;41.05;8.88;;;;;;;28.36;45.56;99394.62;1724785;80;36071;-70
2022/08/23 08:45:31;;;;;;;62.00;10.18;;;;;;;28.56;45.36;99398.81;1714711;80;21239;-69
2022/08/23 08:48:04;;;;;;;60.83;11.25;;;;;;;28.42;44.99;99392.54;1714928;81;21011;-67
2022/08/23 08:50:41;;;;;;;52.05;10.00;;;;;;;28.45;44.99;99403.44;1734408;81;20968;-67
2022/08/23 08:53:16;;;;;;;74.87;11.65;;;;;;;28.62;45.30;99399.28;1731314;81;20918;-69
2022/08/23 08:56:03;;;;;;;73.57;11.57;;;;;;;28.50;45.03;99400.34;1684811;83;20961;-68
2022/08/23 08:58:54;;;;;;;70.67;10.93;;;;;;;28.56;45.95;99393.88;1670489;83;21298;-72
2022/08/23 09:01:22;;;;;;;71.40;11.55;;;;;;;28.71;45.05;99396.20;1676459;83;21414;-68
2022/08/23 09:03:49;;;;;;;70.55;10.82;;;;;;;28.58;44.98;99401.20;1670589;83;21620;-70
2022/08/23 09:06:31;;;;;;;75.55;11.88;;;;;;;28.68;45.12;99399.13;1709904;81;21058;-68
2022/08/23 09:09:35;;;;;;;80.07;12.58;;;;;;;28.71;46.40;99398.95;1740167;80;20923;-67
2022/08/23 09:12:38;;;;;;;66.42;10.28;;;;;;;28.72;46.19;99399.97;1722526;81;22100;-68
2022/08/23 09:15:19;;;;;;;71.55;10.48;;;;;;;28.76;45.73;99401.37;1718531;81;21164;-67
2022/08/23 09:17:53;;;;;;;84.72;13.05;;;;;;;28.79;44.90;99406.95;1725790;80;20899;-69
2022/08/23 09:20:22;;;;;;;78.15;11.03;;;;;;;28.93;44.22;99409.62;1721475;80;21125;-69
2022/08/23 09:23:07;;;;;;;84.28;14.28;;;;;;;28.98;44.14;99409.27;1755458;79;21027;-69
2022/08/23 09:25:35;;;;;;;72.95;13.62;;;;;;;29.15;43.38;99403.12;1757928;79;21246;-69
2022/08/23 09:28:07;;;;;;;80.30;12.75;;;;;;;29.33;44.01;99410.78;1759371;79;20995;-70
2022/08/23 09:30:51;;;;;;;80.92;12.68;;;;;;;29.42;43.40;99408.45;1747560;80;21030;-69
2022/08/23 09:33:25;;;;;;;116.90;15.08;;;;;;;29.49;43.12;99412.05;1765094;80;21614;-69
2022/08/23 09:36:08;;;;;;;77.80;13.15;;;;;;;29.42;43.16;99414.80;1765859;80;20931;-69
2022/08/23 09:38:35;;;;;;;115.08;15.10;;;;;;;29.56;43.48;99410.53;1745909;79;21232;-69
2022/08/23 09:41:07;;;;;;;66.97;11.43;;;;;;;29.52;43.96;99412.47;1733706;81;21027;-71
2022/08/23 09:43:40;;;;;;;89.15;14.07;;;;;;;29.59;42.94;99409.16;1699653;80;20855;-70
2022/08/23 09:46:06;;;;;;;81.40;13.80;;;;;;;29.67;43.86;99405.91;1740325;79;21271;-69
2022/08/23 09:48:40;;;;;;;78.42;13.85;;;;;;;30.05;43.91;99403.11;1738959;81;21003;-70
2022/08/23 09:51:26;;;;;;;104.63;15.78;;;;;;;30.16;43.12;99409.27;1747032;80;21254;-69
2022/08/23 09:54:19;;;;;;;100.40;14.05;;;;;;;30.42;42.18;99401.30;1750501;79;20939;-71
2022/08/23 09:56:57;;;;;;;97.88;15.32;;;;;;;30.37;41.57;99413.53;1736412;79;21529;-69
2022/08/23 09:59:36;;;;;;;104.38;15.78;;;;;;;30.30;42.02;99416.28;1745662;79;21002;-70
2022/08/23 10:02:06;;;;;;;88.03;13.93;;;;;;;30.38;41.86;99408.78;1755356;79;20923;-69
2022/08/23 10:04:44;;;;;;;125.60;16.55;;;;;;;30.57;41.31;99411.81;1670694;80;21068;-69
2022/08/23 10:07:37;;;;;;;99.72;16.57;;;;;;;30.54;41.47;99405.08;1762386;80;20906;-69
2022/08/23 10:10:22;;;;;;;97.80;17.07;;;;;;;30.61;41.28;99417.56;1745782;80;21074;-70
2022/08/23 10:12:51;;;;;;;132.35;18.42;;;;;;;30.65;40.55;99421.70;1736116;80;21551;-69
2022/08/23 10:15:23;;;;;;;114.88;17.07;;;;;;;30.52;39.84;99414.37;1727879;79;21053;-73
2022/08/23 10:18:10;;;;;;;126.78;18.37;;;;;;;30.58;40.94;99423.10;1759321;79;21426;-68
2022/08/23 10:20:55;;;;;;;123.62;17.40;;;;;;;30.72;40.76;99418.38;1706879;82;20831;-67
2022/08/23 10:23:52;;;;;;;96.82;16.35;;;;;;;30.83;40.94;99425.34;1669429;84;20983;-72
